Time;durP1;ratioP1;P1;durP2;ratioP2;P2;SDS_P1;SDS_P2;PMS_P1;PMS_P2;Temp;Humidity;BMP_temperature;BMP_pressure;BME280_temperature;BME280_humidity;BME280_pressure;Samples;Min_cycle;Max_cycle;Signal;HPM_P1;HPM_P2
2024/02/17 00:00:15;;;;;;;50.27;23.73;;;0.10;99.90;;;;;;4128768;28;20295;-62
2024/02/17 00:02:16;;;;;;;46.47;22.27;;;0.10;99.90;;;;;;4128907;28;20279;-60
2024/02/17 00:04:18;;;;;;;43.93;22.77;;;0.00;99.90;;;;;;4128483;28;20744;-61
2024/02/17 00:06:20;;;;;;;51.30;25.27;;;0.00;99.90;;;;;;4128953;28;20706;-62
2024/02/17 00:08:21;;;;;;;46.50;21.40;;;0.00;99.90;;;;;;4128226;28;20303;-58
2024/02/17 00:10:22;;;;;;;43.03;20.30;;;0.00;99.90;;;;;;4129410;28;20268;-61
2024/02/17 00:12:24;;;;;;;54.43;19.53;;;-0.10;99.90;;;;;;4128146;28;20697;-62
2024/02/17 00:14:25;;;;;;;48.63;23.57;;;-0.10;99.90;;;;;;4129351;28;20275;-61
2024/02/17 00:16:27;;;;;;;49.20;22.53;;;-0.20;99.90;;;;;;4128154;28;20680;-61
2024/02/17 00:18:28;;;;;;;46.00;21.73;;;-0.20;99.90;;;;;;4129309;28;20279;-59
2024/02/17 00:20:29;;;;;;;50.00;24.03;;;-0.30;99.90;;;;;;4126728;28;20351;-61
2024/02/17 00:22:31;;;;;;;48.73;22.83;;;-0.40;99.90;;;;;;4129017;28;20342;-60
2024/02/17 00:24:32;;;;;;;57.07;24.33;;;-0.40;99.90;;;;;;4127710;28;20299;-60
2024/02/17 00:26:33;;;;;;;54.97;24.23;;;-0.40;99.90;;;;;;4128813;28;20748;-59
2024/02/17 00:28:34;;;;;;;59.67;25.03;;;-0.50;99.90;;;;;;4128013;28;20683;-61
2024/02/17 00:30:35;;;;;;;50.03;24.03;;;-0.50;99.90;;;;;;4128646;28;20633;-59
2024/02/17 00:32:37;;;;;;;52.83;24.50;;;-0.50;99.90;;;;;;4128477;28;20315;-58
2024/02/17 00:34:38;;;;;;;51.27;24.50;;;-0.50;99.90;;;;;;4128386;28;20275;-62
2024/02/17 00:36:39;;;;;;;53.97;25.07;;;-0.50;99.90;;;;;;4128875;28;20264;-61
2024/02/17 00:38:40;;;;;;;49.60;23.47;;;-0.50;99.90;;;;;;4127625;28;20293;-56
2024/02/17 00:40:44;;;;;;;53.17;24.50;;;-0.50;99.90;;;;;;4128879;28;20284;-59
2024/02/17 00:42:45;;;;;;;54.83;25.37;;;-0.50;99.90;;;;;;4130344;28;20319;-62
2024/02/17 00:44:46;;;;;;;46.47;22.73;;;-0.50;99.90;;;;;;4134172;28;20710;-60
2024/02/17 00:46:47;;;;;;;49.73;25.77;;;-0.50;99.90;;;;;;4132885;28;20346;-64
2024/02/17 00:48:48;;;;;;;43.40;22.37;;;-0.50;99.90;;;;;;4134413;28;20407;-58
2024/02/17 00:50:50;;;;;;;45.87;22.83;;;-0.50;99.90;;;;;;4133976;28;20276;-61
2024/02/17 00:52:52;;;;;;;48.47;24.47;;;-0.50;99.90;;;;;;4134502;28;20605;-54
2024/02/17 00:54:54;;;;;;;44.73;22.97;;;-0.50;99.90;;;;;;4133273;28;20327;-64
2024/02/17 00:56:55;;;;;;;48.73;24.37;;;-0.60;99.90;;;;;;4132456;28;20268;-62
2024/02/17 00:58:56;;;;;;;37.80;21.03;;;-0.60;99.90;;;;;;4132793;28;20810;-59
2024/02/17 01:00:57;;;;;;;47.00;21.00;;;-0.60;99.90;;;;;;4133695;28;20316;-59
2024/02/17 01:02:58;;;;;;;38.23;19.13;;;-0.60;99.90;;;;;;4133746;28;20814;-59
2024/02/17 01:05:00;;;;;;;43.80;20.87;;;-0.60;99.90;;;;;;4134004;28;20264;-62
2024/02/17 01:07:01;;;;;;;41.37;19.13;;;-0.70;99.90;;;;;;4133662;28;20330;-60
2024/02/17 01:09:03;;;;;;;45.63;20.40;;;-0.70;99.90;;;;;;4133487;28;20748;-62
2024/02/17 01:11:04;;;;;;;44.70;21.97;;;-0.70;99.90;;;;;;4133532;28;20322;-61
2024/02/17 01:13:07;;;;;;;47.63;21.50;;;-0.70;99.90;;;;;;4132959;28;20322;-61
2024/02/17 01:15:09;;;;;;;42.00;20.07;;;-0.70;99.90;;;;;;4133679;28;20764;-55
2024/02/17 01:17:10;;;;;;;37.23;19.30;;;-0.70;99.90;;;;;;4131725;28;20323;-59
2024/02/17 01:19:11;;;;;;;45.47;20.23;;;-0.80;99.90;;;;;;4133777;28;20280;-62
2024/02/17 01:21:12;;;;;;;38.23;19.03;;;-0.80;99.90;;;;;;4133352;28;20308;-60
2024/02/17 01:23:13;;;;;;;35.30;17.43;;;-0.80;99.90;;;;;;4134144;28;20268;-58
2024/02/17 01:25:15;;;;;;;40.03;19.23;;;-0.80;99.90;;;;;;4132318;28;20774;-57
2024/02/17 01:27:16;;;;;;;46.30;21.10;;;-0.80;99.90;;;;;;4133933;28;20275;-63
2024/02/17 01:29:18;;;;;;;52.50;21.90;;;-0.80;99.90;;;;;;4133113;28;20264;-59
2024/02/17 01:31:20;;;;;;;50.23;22.93;;;-0.80;99.90;;;;;;4133520;28;20264;-61
2024/02/17 01:33:21;;;;;;;48.70;23.23;;;-0.90;99.90;;;;;;4132834;28;20276;-60
2024/02/17 01:35:23;;;;;;;46.03;21.07;;;-0.90;99.90;;;;;;4133533;28;20334;-59
2024/02/17 01:37:24;;;;;;;49.60;22.80;;;-0.90;99.90;;;;;;4133478;28;20272;-60
2024/02/17 01:39:27;;;;;;;53.70;23.17;;;-1.00;99.90;;;;;;4132964;28;20276;-59
2024/02/17 01:41:28;;;;;;;52.50;22.80;;;-1.00;99.90;;;;;;4132962;28;20392;-57
2024/02/17 01:43:30;;;;;;;54.37;23.87;;;-1.00;99.90;;;;;;4133011;28;20284;-60
2024/02/17 01:45:31;;;;;;;53.80;24.90;;;-1.00;99.90;;;;;;4133893;28;20683;-59
2024/02/17 01:47:32;;;;;;;56.70;22.93;;;-1.00;99.90;;;;;;4133305;28;20276;-62
2024/02/17 01:49:34;;;;;;;50.27;24.07;;;-0.90;99.90;;;;;;4134064;28;20257;-59
2024/02/17 01:51:35;;;;;;;51.83;24.40;;;-0.90;99.90;;;;;;4133266;28;20288;-61
2024/02/17 01:53:37;;;;;;;55.00;25.57;;;-0.90;99.90;;;;;;4133006;28;20744;-52
2024/02/17 01:55:39;;;;;;;47.33;23.13;;;-0.90;99.90;;;;;;4130142;28;20322;-55
2024/02/17 01:57:41;;;;;;;44.00;22.50;;;-0.90;99.90;;;;;;4125812;28;20351;-60
2024/02/17 01:59:43;;;;;;;46.90;23.17;;;-1.00;99.90;;;;;;4130041;28;20272;-54
2024/02/17 02:01:47;;;;;;;46.33;21.87;;;-1.00;99.90;;;;;;4130681;28;20272;-63
2024/02/17 02:03:48;;;;;;;45.17;21.50;;;-1.00;99.90;;;;;;4130686;28;20252;-59
2024/02/17 02:05:50;;;;;;;46.93;21.90;;;-1.00;99.90;;;;;;4130274;28;20290;-60
2024/02/17 02:07:51;;;;;;;49.50;23.33;;;-1.00;99.90;;;;;;4130129;28;20276;-59
2024/02/17 02:09:52;;;;;;;49.50;22.53;;;-1.00;99.90;;;;;;4130188;28;20769;-61
2024/02/17 02:11:56;;;;;;;47.00;21.90;;;-1.00;99.90;;;;;;4130937;28;20300;-63
2024/02/17 02:14:13;;;;;;;48.97;23.30;;;-1.00;99.90;;;;;;4130134;28;20656;-58
2024/02/17 02:16:18;;;;;;;46.47;22.50;;;-1.00;99.90;;;;;;4130986;28;20342;-58
2024/02/17 02:18:19;;;;;;;44.70;21.83;;;-0.90;99.90;;;;;;4129864;28;20284;-60
2024/02/17 02:20:21;;;;;;;48.13;22.13;;;-0.90;99.90;;;;;;4130814;28;20291;-59
2024/02/17 02:22:22;;;;;;;45.30;22.13;;;-1.00;99.90;;;;;;4130026;28;20276;-57
2024/02/17 02:24:23;;;;;;;46.20;20.93;;;-1.00;99.90;;;;;;4130529;28;20268;-58
2024/02/17 02:26:24;;;;;;;45.80;20.67;;;-1.00;99.90;;;;;;4129466;28;20295;-61
2024/02/17 02:28:26;;;;;;;44.93;20.50;;;-1.00;99.90;;;;;;4130644;28;20339;-59
2024/02/17 02:30:27;;;;;;;43.40;21.67;;;-1.00;99.90;;;;;;4129314;28;20330;-59
2024/02/17 02:32:28;;;;;;;41.90;20.70;;;-1.00;99.90;;;;;;4131060;28;20335;-59
2024/02/17 02:34:29;;;;;;;41.80;19.60;;;-1.00;99.90;;;;;;4129712;28;20296;-52
2024/02/17 02:36:31;;;;;;;42.17;20.70;;;-1.00;99.90;;;;;;4130697;28;20664;-54
2024/02/17 02:38:32;;;;;;;47.73;21.33;;;-1.00;99.90;;;;;;4129003;28;20807;-60
2024/02/17 02:40:33;;;;;;;46.60;20.63;;;-1.00;99.90;;;;;;4130093;28;20299;-58
2024/02/17 02:42:34;;;;;;;42.43;21.27;;;-1.10;99.90;;;;;;4129751;28;20656;-56
2024/02/17 02:44:36;;;;;;;40.83;19.90;;;-1.10;99.90;;;;;;4129512;28;20350;-57
2024/02/17 02:46:37;;;;;;;50.37;21.50;;;-1.10;99.90;;;;;;4129957;28;20354;-58
2024/02/17 02:48:38;;;;;;;43.53;21.07;;;-1.10;99.90;;;;;;4129842;28;20307;-60
2024/02/17 02:50:39;;;;;;;46.03;21.07;;;-1.10;99.90;;;;;;4130388;28;20315;-55
2024/02/17 02:52:40;;;;;;;49.13;21.47;;;-1.10;99.90;;;;;;4128910;28;20598;-59
2024/02/17 02:54:42;;;;;;;45.40;20.47;;;-1.10;99.90;;;;;;4130159;28;20323;-59
2024/02/17 02:56:43;;;;;;;43.17;20.93;;;-1.20;99.90;;;;;;4129309;28;20334;-60
2024/02/17 02:58:44;;;;;;;44.00;21.20;;;-1.20;99.90;;;;;;4129340;28;20276;-60
2024/02/17 03:00:48;;;;;;;46.83;21.10;;;-1.20;99.90;;;;;;4129109;28;20346;-58
2024/02/17 03:02:50;;;;;;;40.00;17.47;;;-1.20;99.90;;;;;;4130453;28;20652;-58
2024/02/17 03:04:55;;;;;;;33.53;15.67;;;-1.30;99.90;;;;;;4128775;28;20326;-55
2024/02/17 03:06:56;;;;;;;29.33;14.70;;;-1.20;99.90;;;;;;4130045;28;20264;-59
2024/02/17 03:08:58;;;;;;;38.57;17.40;;;-1.30;99.90;;;;;;4128966;28;20291;-57
2024/02/17 03:10:59;;;;;;;39.03;18.13;;;-1.30;99.90;;;;;;4130193;28;20264;-57
2024/02/17 03:13:01;;;;;;;37.43;17.27;;;-1.40;99.90;;;;;;4129357;28;20660;-60
2024/02/17 03:15:02;;;;;;;42.00;21.07;;;-1.40;99.90;;;;;;4129889;28;20664;-57
2024/02/17 03:17:04;;;;;;;47.13;20.73;;;-1.50;99.90;;;;;;4129338;28;20545;-54
2024/02/17 03:19:06;;;;;;;44.67;21.63;;;-1.60;99.90;;;;;;4129227;28;20737;-54
2024/02/17 03:21:07;;;;;;;40.93;19.73;;;-1.60;99.90;;;;;;4129858;28;20772;-60
2024/02/17 03:23:08;;;;;;;42.33;20.07;;;-1.70;99.90;;;;;;4128943;28;20323;-56
2024/02/17 03:25:10;;;;;;;43.53;19.60;;;-1.70;99.90;;;;;;4129776;28;20260;-60
2024/02/17 03:27:11;;;;;;;47.70;20.13;;;-1.80;99.90;;;;;;4128112;28;20315;-59
2024/02/17 03:29:12;;;;;;;41.37;20.03;;;-1.80;99.90;;;;;;4129719;28;20268;-56
2024/02/17 03:31:14;;;;;;;42.57;19.47;;;-1.80;99.90;;;;;;4128955;28;20326;-57
2024/02/17 03:33:15;;;;;;;45.00;21.17;;;-1.90;99.90;;;;;;4129741;28;20312;-58
2024/02/17 03:35:16;;;;;;;42.57;19.43;;;-2.00;99.90;;;;;;4127958;28;20276;-60
2024/02/17 03:37:19;;;;;;;42.43;20.73;;;-1.90;99.90;;;;;;4129991;28;20263;-58
2024/02/17 03:39:22;;;;;;;41.50;19.77;;;-1.90;99.90;;;;;;4128577;28;20267;-58
2024/02/17 03:41:24;;;;;;;46.30;21.70;;;-1.80;99.90;;;;;;4129463;28;21084;-61
2024/02/17 03:43:26;;;;;;;48.03;20.70;;;-1.70;99.90;;;;;;4128495;28;20318;-58
2024/02/17 03:45:27;;;;;;;43.57;20.10;;;-1.70;99.90;;;;;;4129568;28;20256;-59
2024/02/17 03:47:28;;;;;;;41.37;17.90;;;-1.70;99.90;;;;;;4128951;28;20275;-55
2024/02/17 03:49:29;;;;;;;40.10;19.53;;;-1.70;99.90;;;;;;4129097;28;20275;-63
2024/02/17 03:51:31;;;;;;;37.60;17.70;;;-1.70;99.90;;;;;;4129315;28;20762;-57
2024/02/17 03:53:32;;;;;;;38.37;17.97;;;-1.70;99.90;;;;;;4128804;28;20284;-58
2024/02/17 03:55:33;;;;;;;41.67;19.60;;;-1.60;99.90;;;;;;4128963;28;20334;-58
2024/02/17 03:57:34;;;;;;;34.43;17.43;;;-1.60;99.90;;;;;;4127853;28;20327;-58
2024/02/17 03:59:35;;;;;;;34.30;17.73;;;-1.70;99.90;;;;;;4129151;28;20280;-57
2024/02/17 04:01:38;;;;;;;39.57;17.90;;;-1.60;99.90;;;;;;4127597;28;20795;-57
2024/02/17 04:03:39;;;;;;;33.80;16.97;;;-1.70;99.90;;;;;;4129189;28;20272;-60
2024/02/17 04:05:40;;;;;;;35.47;17.43;;;-1.70;99.90;;;;;;4128400;28;20323;-52
2024/02/17 04:07:41;;;;;;;34.40;16.10;;;-1.70;99.90;;;;;;4129692;28;20602;-61
2024/02/17 04:09:42;;;;;;;33.73;15.30;;;-1.70;99.90;;;;;;4127528;28;20271;-57
2024/02/17 04:11:44;;;;;;;37.60;15.43;;;-1.70;99.90;;;;;;4128512;28;20644;-58
2024/02/17 04:13:45;;;;;;;31.70;16.03;;;-1.70;99.90;;;;;;4128516;28;20272;-59
2024/02/17 04:15:46;;;;;;;33.27;16.40;;;-1.80;99.90;;;;;;4129169;28;20311;-56
2024/02/17 04:17:48;;;;;;;32.20;15.87;;;-1.80;99.90;;;;;;4126783;28;20268;-54
2024/02/17 04:19:49;;;;;;;37.50;15.90;;;-1.80;99.90;;;;;;4129010;28;20272;-60
2024/02/17 04:21:50;;;;;;;35.77;14.60;;;-1.80;99.90;;;;;;4129057;28;20769;-60
2024/02/17 04:23:52;;;;;;;27.17;14.63;;;-1.90;99.90;;;;;;4128208;28;20276;-58
2024/02/17 04:25:54;;;;;;;29.47;15.17;;;-1.90;99.90;;;;;;4128336;28;20330;-54
2024/02/17 04:27:55;;;;;;;32.10;15.53;;;-1.90;99.90;;;;;;4112775;28;20829;-58
2024/02/17 04:29:57;;;;;;;32.17;15.07;;;-2.00;99.90;;;;;;4129012;28;20720;-59
2024/02/17 04:31:58;;;;;;;32.20;14.80;;;-2.00;99.90;;;;;;4128337;28;20305;-55
2024/02/17 04:33:59;;;;;;;28.13;13.80;;;-2.00;99.90;;;;;;4128661;28;20276;-57
2024/02/17 04:36:01;;;;;;;32.80;16.10;;;-2.00;99.90;;;;;;4127815;28;20260;-60
2024/02/17 04:38:02;;;;;;;27.07;13.30;;;-2.10;99.90;;;;;;4128879;28;20283;-56
2024/02/17 04:40:04;;;;;;;36.63;15.83;;;-2.10;99.90;;;;;;4127532;28;20799;-57
2024/02/17 04:42:05;;;;;;;27.87;15.10;;;-2.20;99.90;;;;;;4128908;28;20358;-61
2024/02/17 04:44:06;;;;;;;32.33;14.60;;;-2.20;99.90;;;;;;4127100;28;20284;-61
2024/02/17 04:46:08;;;;;;;33.83;15.33;;;-2.30;99.90;;;;;;4128796;28;20279;-61
2024/02/17 04:48:09;;;;;;;30.67;15.00;;;-2.30;99.90;;;;;;4127675;28;20248;-57
2024/02/17 04:50:13;;;;;;;31.20;15.60;;;-2.30;99.90;;;;;;4128064;28;20275;-60
2024/02/17 04:52:14;;;;;;;33.30;16.17;;;-2.40;99.90;;;;;;4128549;28;20292;-55
2024/02/17 04:54:16;;;;;;;39.17;17.87;;;-2.30;99.90;;;;;;4128126;28;20283;-60
2024/02/17 04:56:18;;;;;;;53.80;24.47;;;-2.40;99.90;;;;;;4128109;28;20268;-61
2024/02/17 04:58:19;;;;;;;42.90;21.60;;;-2.40;99.90;;;;;;4127204;28;20748;-60
2024/02/17 05:00:20;;;;;;;45.47;21.93;;;-2.40;99.90;;;;;;4128523;28;20264;-58
2024/02/17 05:02:22;;;;;;;44.73;19.93;;;-2.40;99.90;;;;;;4127445;28;20700;-59
2024/02/17 05:04:23;;;;;;;32.53;17.80;;;-2.40;99.90;;;;;;4128214;28;20284;-55
2024/02/17 05:06:24;;;;;;;35.53;17.23;;;-2.40;99.90;;;;;;4127194;28;20272;-59
2024/02/17 05:08:25;;;;;;;32.73;16.63;;;-2.40;99.90;;;;;;4128725;28;20322;-57
2024/02/17 05:10:26;;;;;;;37.93;19.37;;;-2.40;99.90;;;;;;4127448;28;20319;-59
2024/02/17 05:12:28;;;;;;;46.10;22.27;;;-2.50;99.90;;;;;;4128993;28;20338;-50
2024/02/17 05:14:29;;;;;;;44.80;22.10;;;-2.50;99.90;;;;;;4126787;28;20334;-59
2024/02/17 05:16:31;;;;;;;42.50;21.50;;;-2.50;99.90;;;;;;4128673;28;20326;-58
2024/02/17 05:18:32;;;;;;;44.10;22.67;;;-2.50;99.90;;;;;;4127987;28;20272;-57
2024/02/17 05:20:33;;;;;;;41.97;21.50;;;-2.50;99.90;;;;;;4127954;28;20342;-60
2024/02/17 05:22:36;;;;;;;43.33;21.37;;;-2.50;99.90;;;;;;4128020;28;20760;-60
2024/02/17 05:24:38;;;;;;;41.63;21.67;;;-2.50;99.90;;;;;;4127796;28;20338;-60
2024/02/17 05:26:39;;;;;;;54.93;23.73;;;-2.40;99.90;;;;;;4127915;28;20272;-59
2024/02/17 05:28:40;;;;;;;46.40;22.67;;;-2.50;99.90;;;;;;4128381;28;20272;-62
2024/02/17 05:30:42;;;;;;;47.33;24.60;;;-2.50;99.90;;;;;;4130958;28;20288;-62
2024/02/17 05:32:44;;;;;;;44.80;24.40;;;-2.50;99.90;;;;;;4130514;28;20284;-58
2024/02/17 05:34:45;;;;;;;45.87;23.47;;;-2.50;99.90;;;;;;4131488;28;20353;-60
2024/02/17 05:36:47;;;;;;;50.67;24.33;;;-2.40;99.90;;;;;;4129301;28;20276;-58
2024/02/17 05:38:48;;;;;;;41.13;22.27;;;-2.30;99.90;;;;;;4131548;28;20311;-58
2024/02/17 05:40:49;;;;;;;44.63;23.53;;;-2.10;99.90;;;;;;4129959;28;20268;-59
2024/02/17 05:42:50;;;;;;;46.67;22.20;;;-1.90;99.90;;;;;;4130852;28;20279;-57
2024/02/17 05:44:52;;;;;;;43.57;22.10;;;-1.70;99.90;;;;;;4130422;28;20338;-55
2024/02/17 05:46:53;;;;;;;40.17;21.20;;;-1.50;99.90;;;;;;4131354;28;20283;-58
2024/02/17 05:48:54;;;;;;;45.40;21.33;;;-1.30;99.90;;;;;;4128869;28;20859;-60
2024/02/17 05:50:55;;;;;;;45.10;23.00;;;-1.00;99.90;;;;;;4131145;28;20287;-60
2024/02/17 05:52:58;;;;;;;39.23;22.13;;;-0.80;99.90;;;;;;4130956;28;20276;-60
2024/02/17 05:54:59;;;;;;;42.83;22.37;;;-0.50;99.90;;;;;;4130519;28;20688;-66
2024/02/17 05:57:01;;;;;;;47.57;23.87;;;-0.30;99.90;;;;;;4130286;28;20732;-57
2024/02/17 05:59:03;;;;;;;41.90;21.70;;;0.00;99.90;;;;;;4129987;28;20664;-68
2024/02/17 06:01:04;;;;;;;44.33;21.00;;;0.30;99.90;;;;;;4130732;28;20304;-66
2024/02/17 06:03:07;;;;;;;35.87;20.13;;;0.60;99.90;;;;;;4129817;28;20269;-63
2024/02/17 06:05:10;;;;;;;38.33;20.03;;;0.80;99.90;;;;;;4131388;28;20326;-57
2024/02/17 06:07:11;;;;;;;39.03;19.60;;;1.10;99.90;;;;;;4130007;28;20680;-60
2024/02/17 06:09:13;;;;;;;40.57;20.87;;;1.50;99.90;;;;;;4130869;28;20675;-56
2024/02/17 06:11:14;;;;;;;35.67;19.90;;;2.00;99.90;;;;;;4130119;28;20989;-54
2024/02/17 06:13:16;;;;;;;38.33;19.93;;;2.40;99.90;;;;;;4131143;28;20322;-62
2024/02/17 06:15:17;;;;;;;64.07;34.90;;;2.20;99.90;;;;;;4130103;28;20279;-54
2024/02/17 06:17:22;;;;;;;61.73;33.23;;;2.00;99.90;;;;;;4131037;28;20338;-65
2024/02/17 06:21:43;;;;;;;39.47;22.20;;;2.30;99.90;;;;;;4131492;28;20707;-64
2024/02/17 06:23:45;;;;;;;46.30;22.60;;;2.20;99.90;;;;;;4129919;28;20299;-64
2024/02/17 06:25:46;;;;;;;36.97;19.93;;;2.40;99.90;;;;;;4130727;28;20315;-64
2024/02/17 06:27:47;;;;;;;40.47;19.80;;;2.50;99.90;;;;;;4129399;28;20648;-61
2024/02/17 06:29:48;;;;;;;37.03;19.90;;;2.90;99.90;;;;;;4130542;28;20022;-61
2024/02/17 06:31:49;;;;;;;34.43;19.07;;;3.20;99.90;;;;;;4130093;28;20276;-60
2024/02/17 06:33:51;;;;;;;34.70;18.67;;;3.90;99.90;;;;;;4129858;28;20454;-52
2024/02/17 06:35:52;;;;;;;39.40;20.03;;;4.20;99.90;;;;;;4119002;28;20396;-54
2024/02/17 06:37:53;;;;;;;32.97;19.47;;;4.40;99.90;;;;;;4128317;28;20450;-58
2024/02/17 06:39:55;;;;;;;41.80;21.60;;;4.70;99.90;;;;;;4128976;28;20097;-55
2024/02/17 06:41:56;;;;;;;35.43;20.20;;;5.00;99.90;;;;;;4127625;28;20054;-62
2024/02/17 06:43:57;;;;;;;39.33;20.53;;;5.50;99.90;;;;;;4130333;28;20096;-59
2024/02/17 06:45:59;;;;;;;36.20;20.00;;;5.90;99.90;;;;;;4129266;28;20034;-56
2024/02/17 06:48:02;;;;;;;35.37;19.53;;;6.20;99.90;;;;;;4129845;28;20104;-63
2024/02/17 06:50:03;;;;;;;32.37;18.07;;;6.50;99.90;;;;;;4129128;28;20116;-56
2024/02/17 06:52:05;;;;;;;37.10;20.03;;;7.10;99.90;;;;;;4130526;28;20549;-59
2024/02/17 06:54:06;;;;;;;43.70;20.00;;;7.40;99.90;;;;;;4129198;28;20046;-60
2024/02/17 06:56:07;;;;;;;39.33;19.93;;;7.60;99.90;;;;;;4130373;28;20022;-59
2024/02/17 06:58:08;;;;;;;37.00;21.37;;;7.60;99.90;;;;;;4128997;28;20030;-64
2024/02/17 07:00:11;;;;;;;36.47;19.33;;;7.80;99.90;;;;;;4129711;28;20120;-62
2024/02/17 07:02:12;;;;;;;40.93;20.43;;;7.80;99.90;;;;;;4129241;28;20101;-62
2024/02/17 07:04:13;;;;;;;37.50;20.50;;;8.00;99.90;;;;;;4129994;28;20109;-55
2024/02/17 07:06:18;;;;;;;36.37;19.33;;;8.20;99.90;;;;;;4129316;28;20086;-62
2024/02/17 07:08:19;;;;;;;35.63;17.90;;;8.50;99.90;;;;;;4129691;28;20104;-62
2024/02/17 07:10:21;;;;;;;33.47;18.47;;;8.50;99.70;;;;;;4130285;28;20042;-58
2024/02/17 07:12:22;;;;;;;34.17;18.17;;;8.20;99.70;;;;;;4129053;28;20474;-64
2024/02/17 07:14:23;;;;;;;33.47;19.10;;;8.20;99.70;;;;;;4130177;28;20089;-60
2024/02/17 07:16:26;;;;;;;45.67;23.70;;;7.80;99.60;;;;;;4129161;28;20144;-62
2024/02/17 07:18:27;;;;;;;47.50;22.50;;;7.40;99.80;;;;;;4130212;28;20096;-66
2024/02/17 07:20:31;;;;;;;34.63;19.23;;;7.00;99.90;;;;;;4128725;28;20022;-65
2024/02/17 07:22:32;;;;;;;35.00;20.17;;;6.60;99.90;;;;;;4129767;28;20054;-63
2024/02/17 07:24:33;;;;;;;34.37;18.53;;;6.30;99.90;;;;;;4128230;28;20035;-58
2024/02/17 07:26:41;;;;;;;30.60;17.53;;;6.10;99.90;;;;;;4129885;28;20085;-64
2024/02/17 07:28:43;;;;;;;33.13;18.80;;;6.60;99.90;;;;;;4128973;28;20462;-62
2024/02/17 07:30:44;;;;;;;32.23;16.53;;;7.10;99.90;;;;;;4129442;28;20043;-64
2024/02/17 07:32:45;;;;;;;31.97;17.20;;;7.50;99.90;;;;;;4128712;28;20592;-60
2024/02/17 07:34:47;;;;;;;27.17;16.83;;;7.60;99.60;;;;;;4129556;28;20089;-65
2024/02/17 07:36:48;;;;;;;28.63;16.47;;;7.70;99.50;;;;;;4128784;28;20050;-62
2024/02/17 07:38:49;;;;;;;29.37;16.23;;;7.50;99.40;;;;;;4129087;28;20084;-60
2024/02/17 07:40:50;;;;;;;27.40;16.83;;;8.10;99.50;;;;;;4123061;28;20146;-68
2024/02/17 07:42:51;;;;;;;26.23;15.87;;;8.30;99.00;;;;;;4128209;28;20105;-67
2024/02/17 07:44:53;;;;;;;29.03;17.03;;;8.50;98.70;;;;;;4128588;28;20057;-64
2024/02/17 07:46:54;;;;;;;25.83;15.90;;;8.40;98.80;;;;;;4128140;28;20530;-64
2024/02/17 07:48:55;;;;;;;26.97;15.80;;;8.40;98.90;;;;;;4129490;28;20093;-68
2024/02/17 07:50:56;;;;;;;29.37;16.73;;;8.50;98.90;;;;;;4127499;28;20502;-63
2024/02/17 07:52:59;;;;;;;25.43;15.70;;;8.40;98.80;;;;;;4129087;28;20043;-67
2024/02/17 07:55:00;;;;;;;22.43;14.70;;;8.70;98.70;;;;;;4127467;28;20038;-63
2024/02/17 07:57:01;;;;;;;27.07;13.97;;;9.30;98.30;;;;;;4129063;28;20081;-63
2024/02/17 07:59:03;;;;;;;23.00;15.17;;;8.70;97.60;;;;;;4128186;28;20046;-59
2024/02/17 08:01:05;;;;;;;25.60;14.30;;;7.80;98.50;;;;;;4129377;28;20038;-61
2024/02/17 08:03:06;;;;;;;28.57;15.13;;;7.70;99.20;;;;;;4127353;28;20054;-63
2024/02/17 08:05:07;;;;;;;29.63;15.53;;;7.90;99.10;;;;;;4128951;28;20084;-62
2024/02/17 08:07:09;;;;;;;24.83;15.17;;;7.90;99.10;;;;;;4128403;28;20105;-65
2024/02/17 08:09:10;;;;;;;23.20;14.57;;;8.20;99.00;;;;;;4127534;28;20466;-62
2024/02/17 08:11:12;;;;;;;23.97;14.87;;;8.20;98.80;;;;;;4127652;28;20478;-64
2024/02/17 08:13:13;;;;;;;27.77;16.20;;;8.50;98.70;;;;;;4117410;28;20458;-64
2024/02/17 08:15:15;;;;;;;27.03;15.90;;;8.20;98.70;;;;;;4128857;28;20026;-56
2024/02/17 08:17:16;;;;;;;27.60;16.27;;;8.20;99.10;;;;;;4128200;28;20030;-57
2024/02/17 08:19:17;;;;;;;26.53;13.77;;;8.30;98.80;;;;;;4128399;28;20474;-68
2024/02/17 08:21:18;;;;;;;23.60;14.50;;;8.40;98.70;;;;;;4127256;28;20046;-63
2024/02/17 08:23:19;;;;;;;23.30;13.40;;;8.50;98.30;;;;;;4129537;28;20038;-68
2024/02/17 08:25:21;;;;;;;24.70;13.97;;;8.50;98.40;;;;;;4127155;28;20046;-65
2024/02/17 08:27:22;;;;;;;35.23;16.90;;;8.40;98.30;;;;;;4128820;28;20553;-63
2024/02/17 08:29:23;;;;;;;26.07;14.30;;;8.20;98.20;;;;;;4127421;28;20081;-61
2024/02/17 08:31:25;;;;;;;26.17;14.03;;;8.20;98.60;;;;;;4129016;28;20038;-65
2024/02/17 08:33:26;;;;;;;26.00;14.97;;;8.10;98.70;;;;;;4127641;28;20451;-60
2024/02/17 08:35:27;;;;;;;24.37;13.93;;;8.30;98.70;;;;;;4127883;28;20085;-70
2024/02/17 08:37:29;;;;;;;24.20;14.73;;;8.30;98.40;;;;;;4127840;28;20644;-63
2024/02/17 08:39:30;;;;;;;24.23;15.17;;;8.20;98.40;;;;;;4127378;28;20096;-60
2024/02/17 08:41:32;;;;;;;30.50;17.97;;;8.30;98.50;;;;;;4127255;28;20034;-64
2024/02/17 08:43:33;;;;;;;29.63;16.43;;;8.60;98.30;;;;;;4126834;28;20475;-65
2024/02/17 08:45:35;;;;;;;29.07;15.57;;;8.80;98.40;;;;;;4128245;28;20050;-66
2024/02/17 08:47:36;;;;;;;25.43;15.03;;;9.10;97.80;;;;;;4127131;28;20506;-61
2024/02/17 08:49:37;;;;;;;27.37;15.00;;;9.10;97.70;;;;;;4128974;28;20073;-64
2024/02/17 08:51:38;;;;;;;29.27;16.30;;;9.30;97.50;;;;;;4126677;28;20065;-64
2024/02/17 08:53:40;;;;;;;33.27;18.07;;;9.40;97.40;;;;;;4128853;28;20089;-68
2024/02/17 08:55:41;;;;;;;29.90;16.23;;;9.40;97.00;;;;;;4126635;28;20475;-59
2024/02/17 08:57:42;;;;;;;29.83;16.00;;;8.70;97.30;;;;;;4128034;28;20077;-63
2024/02/17 08:59:43;;;;;;;26.37;16.33;;;8.30;97.70;;;;;;4127436;28;20042;-64
2024/02/17 09:01:45;;;;;;;33.20;15.33;;;8.00;98.10;;;;;;4128455;28;20054;-58
2024/02/17 09:03:46;;;;;;;27.07;14.70;;;7.70;98.20;;;;;;4128388;28;20042;-59
2024/02/17 09:05:47;;;;;;;28.93;17.30;;;7.60;98.70;;;;;;4131631;28;20101;-59
2024/02/17 09:07:48;;;;;;;28.63;16.53;;;8.00;98.70;;;;;;4130690;28;20081;-61
2024/02/17 09:09:53;;;;;;;30.37;15.83;;;7.80;98.50;;;;;;4130669;28;20487;-60
2024/02/17 09:11:54;;;;;;;29.77;15.53;;;7.70;98.80;;;;;;4131381;28;20034;-61
2024/02/17 09:13:55;;;;;;;25.83;14.77;;;7.90;98.70;;;;;;4130822;28;20026;-69
2024/02/17 09:15:56;;;;;;;25.23;15.53;;;7.80;98.40;;;;;;4130756;28;20077;-60
2024/02/17 09:17:59;;;;;;;30.07;14.97;;;7.70;98.60;;;;;;4130404;28;20042;-68
2024/02/17 09:20:01;;;;;;;24.43;15.07;;;7.60;98.70;;;;;;4130572;28;20077;-61
2024/02/17 09:22:03;;;;;;;28.43;16.57;;;7.50;98.80;;;;;;4121803;28;20054;-67
2024/02/17 09:24:05;;;;;;;25.77;15.53;;;7.60;98.80;;;;;;4132287;28;20034;-66
2024/02/17 09:26:06;;;;;;;19.57;12.00;;;8.00;98.80;;;;;;4130585;28;20109;-58
2024/02/17 09:28:07;;;;;;;21.50;12.83;;;8.20;98.20;;;;;;4131569;28;20026;-60
2024/02/17 09:30:08;;;;;;;23.13;13.73;;;8.20;98.10;;;;;;4130164;28;20070;-62
2024/02/17 09:32:10;;;;;;;21.13;12.97;;;8.00;98.10;;;;;;4131423;28;20426;-62
2024/02/17 09:34:11;;;;;;;22.20;12.33;;;7.80;98.40;;;;;;4130178;28;20418;-60
2024/02/17 09:36:12;;;;;;;20.93;12.07;;;7.70;98.30;;;;;;4131969;28;20085;-62
2024/02/17 09:38:13;;;;;;;17.30;10.23;;;7.70;98.40;;;;;;4130600;28;20034;-63
2024/02/17 09:40:16;;;;;;;20.70;11.80;;;7.70;98.30;;;;;;4130977;28;20125;-65
2024/02/17 09:42:17;;;;;;;16.67;9.97;;;7.80;98.70;;;;;;4130435;28;20089;-62
2024/02/17 09:44:19;;;;;;;21.27;11.57;;;7.80;98.10;;;;;;4130756;28;20093;-64
2024/02/17 09:46:24;;;;;;;20.87;10.67;;;7.90;97.90;;;;;;4130967;28;20027;-65
2024/02/17 09:48:25;;;;;;;19.90;10.90;;;7.90;98.00;;;;;;4130058;28;20537;-62
2024/02/17 09:50:28;;;;;;;17.47;9.13;;;7.80;98.10;;;;;;4130827;28;20122;-64
2024/02/17 09:52:30;;;;;;;18.53;10.07;;;7.90;98.00;;;;;;4130072;28;20490;-65
2024/02/17 09:54:32;;;;;;;17.57;10.13;;;8.00;97.90;;;;;;4130754;28;20839;-61
2024/02/17 09:56:33;;;;;;;18.63;10.63;;;8.20;97.90;;;;;;4129830;28;20089;-65
2024/02/17 09:58:36;;;;;;;16.93;9.53;;;8.30;97.50;;;;;;4130337;28;20102;-62
2024/02/17 10:00:37;;;;;;;19.30;11.17;;;8.40;97.30;;;;;;4129938;28;20042;-63
2024/02/17 10:02:39;;;;;;;22.30;13.23;;;8.70;97.40;;;;;;4140752;28;20042;-63
2024/02/17 10:04:56;;;;;;;19.17;11.93;;;8.80;97.20;;;;;;4131442;28;20081;-61
2024/02/17 10:07:03;;;;;;;24.67;12.33;;;8.70;96.90;;;;;;4130897;28;20038;-58
2024/02/17 10:09:05;;;;;;;23.87;12.53;;;8.60;97.10;;;;;;4129984;28;20034;-65
2024/02/17 10:11:12;;;;;;;23.33;11.37;;;8.60;97.30;;;;;;4130844;28;20026;-66
2024/02/17 10:13:20;;;;;;;22.33;13.80;;;8.60;97.00;;;;;;4129398;28;20442;-62
2024/02/17 10:15:22;;;;;;;19.83;11.77;;;8.60;97.10;;;;;;4129118;28;20105;-66
2024/02/17 10:17:24;;;;;;;23.63;10.83;;;8.60;97.10;;;;;;4129671;28;20478;-62
2024/02/17 10:19:25;;;;;;;18.43;11.20;;;8.70;97.00;;;;;;4130308;28;20030;-62
2024/02/17 10:21:26;;;;;;;23.67;12.37;;;8.80;96.90;;;;;;4129760;28;20080;-66